TimePDT,TemperatureF,Dew PointF,Humidity,Sea Level PressureIn,VisibilityMPH,Wind Direction,Wind SpeedMPH,Gust SpeedMPH,PrecipitationIn,Events,Conditions,WindDirDegrees,DateUTC
12:56 AM,48.0,-5.1,11,30.19,10.0,Calm,Calm,-,N/A,,Clear,0,2011-11-02 07:56:00
1:56 AM,53.1,-8.0,8,30.19,10.0,WNW,5.8,-,N/A,,Clear,290,2011-11-02 08:56:00
2:56 AM,50.0,-4.0,11,30.19,10.0,West,5.8,-,N/A,,Clear,270,2011-11-02 09:56:00
3:56 AM,45.0,-5.1,12,30.21,10.0,SSW,12.7,-,N/A,,Clear,200,2011-11-02 10:56:00
4:56 AM,46.0,-4.0,12,30.23,10.0,SW,11.5,-,N/A,,Clear,220,2011-11-02 11:56:00
5:56 AM,45.0,-5.1,12,30.26,10.0,SSW,8.1,-,N/A,,Clear,200,2011-11-02 12:56:00
6:56 AM,43.0,-4.0,14,30.28,10.0,SSE,4.6,-,N/A,,Clear,150,2011-11-02 13:56:00
7:56 AM,43.0,-4.0,14,30.32,10.0,SW,5.8,-,N/A,,Clear,230,2011-11-02 14:56:00
8:56 AM,50.0,-2.0,12,30.34,10.0,North,3.5,-,N/A,,Clear,10,2011-11-02 15:56:00
9:56 AM,55.0,-2.9,9,30.35,10.0,Calm,Calm,-,N/A,,Clear,0,2011-11-02 16:56:00
10:56 AM,59.0,-2.0,8,30.34,10.0,Calm,Calm,-,N/A,,Clear,0,2011-11-02 17:56:00
11:56 AM,62.1,-2.9,7,30.32,10.0,Calm,Calm,-,N/A,,Clear,0,2011-11-02 18:56:00
12:56 PM,63.0,-2.9,7,30.29,10.0,Calm,Calm,-,N/A,,Clear,0,2011-11-02 19:56:00
1:56 PM,64.0,-2.9,7,30.25,10.0,Calm,Calm,-,N/A,,Clear,0,2011-11-02 20:56:00
2:56 PM,64.9,-4.0,6,30.23,10.0,East,9.2,-,N/A,,Clear,80,2011-11-02 21:56:00
3:56 PM,64.9,-4.0,6,30.22,10.0,ESE,8.1,-,N/A,,Clear,110,2011-11-02 22:56:00
4:56 PM,64.0,-0.9,7,30.21,10.0,ESE,8.1,-,N/A,,Clear,120,2011-11-02 23:56:00
5:56 PM,57.9,-0.9,9,30.20,10.0,ESE,4.6,-,N/A,,Clear,120,2011-11-03 00:56:00
6:56 PM,53.1,-2.0,10,30.22,10.0,SSE,6.9,-,N/A,,Clear,150,2011-11-03 01:56:00
7:56 PM,48.0,-2.9,12,30.21,10.0,SW,6.9,-,N/A,,Clear,220,2011-11-03 02:56:00
8:56 PM,44.1,-2.9,14,30.22,10.0,SSW,8.1,-,N/A,,Clear,210,2011-11-03 03:56:00
9:56 PM,43.0,-2.9,15,30.21,10.0,SSW,9.2,-,N/A,,Clear,210,2011-11-03 04:56:00
10:56 PM,42.1,-2.9,15,30.21,10.0,South,5.8,-,N/A,,Clear,170,2011-11-03 05:56:00
11:56 PM,37.9,-2.9,18,30.20,10.0,SSW,9.2,-,N/A,,Clear,200,2011-11-03 06:56:00